createdAt,value
2018-08-14T00:01:22.652Z,1.77
2018-08-14T00:06:25.872Z,2.00
2018-08-14T00:11:29.090Z,1.80
2018-08-14T00:16:32.302Z,1.80
2018-08-14T00:21:35.523Z,1.83
2018-08-14T00:26:39.027Z,1.50
2018-08-14T00:31:42.243Z,1.90
2018-08-14T00:36:45.459Z,1.77
2018-08-14T00:41:48.815Z,1.63
2018-08-14T00:46:52.044Z,2.03
2018-08-14T00:51:55.270Z,1.77
2018-08-14T00:56:58.515Z,1.60
2018-08-14T01:02:01.908Z,2.60
2018-08-14T01:07:05.503Z,1.97
2018-08-14T01:12:08.729Z,2.03
2018-08-14T01:17:11.952Z,2.70
2018-08-14T01:22:15.155Z,2.50
2018-08-14T01:27:18.375Z,2.10
2018-08-14T01:32:21.618Z,2.80
2018-08-14T01:37:24.859Z,2.93
2018-08-14T01:42:28.109Z,3.30
2018-08-14T01:47:31.450Z,2.70
2018-08-14T01:52:34.686Z,3.07
2018-08-14T01:57:38.016Z,3.60
2018-08-14T02:02:41.293Z,3.80
2018-08-14T02:07:44.622Z,4.60
2018-08-14T02:12:47.934Z,4.37
2018-08-14T02:17:51.187Z,4.57
2018-08-14T02:22:56.013Z,5.20
2018-08-14T02:27:59.276Z,5.00
2018-08-14T02:33:02.516Z,5.20
2018-08-14T02:38:05.767Z,5.10
2018-08-14T02:43:09.012Z,5.80
2018-08-14T02:48:12.268Z,5.00
2018-08-14T02:53:15.558Z,6.03
2018-08-14T02:58:18.785Z,6.90
2018-08-14T03:03:21.972Z,5.30
2018-08-14T03:08:25.175Z,5.47
2018-08-14T03:13:28.379Z,5.57
2018-08-14T03:18:31.831Z,5.93
2018-08-14T03:23:35.040Z,6.17
2018-08-14T03:28:38.232Z,6.00
2018-08-14T03:33:41.431Z,6.50
2018-08-14T03:38:44.640Z,7.23
2018-08-14T03:43:47.840Z,7.80
2018-08-14T03:48:51.039Z,7.73
2018-08-14T03:53:54.246Z,7.70
2018-08-14T03:58:57.519Z,7.67
2018-08-14T04:04:00.767Z,8.57
2018-08-14T04:09:05.223Z,8.23
2018-08-14T04:14:08.520Z,8.30
2018-08-14T04:19:11.768Z,8.97
2018-08-14T04:24:15.028Z,9.60
2018-08-14T04:29:18.279Z,10.97
2018-08-14T04:34:21.544Z,9.90
2018-08-14T04:39:24.792Z,11.17
2018-08-14T04:44:28.071Z,12.13
2018-08-14T04:49:31.312Z,11.83
2018-08-14T04:54:34.560Z,11.73
2018-08-14T04:59:37.788Z,13.30
2018-08-14T05:04:40.995Z,14.90
2018-08-14T05:09:44.183Z,14.40
2018-08-14T05:14:47.390Z,15.00
2018-08-14T05:19:50.631Z,14.03
2018-08-14T05:24:53.882Z,15.87
2018-08-14T05:29:57.210Z,16.03
2018-08-14T05:35:00.455Z,15.60
2018-08-14T05:40:04.347Z,16.53
2018-08-14T05:45:09.403Z,15.10
2018-08-14T05:50:15.286Z,14.70
2018-08-14T05:55:18.515Z,14.20
2018-08-14T06:00:21.798Z,16.50
2018-08-14T06:05:25.028Z,16.30
2018-08-14T06:10:28.291Z,14.97
2018-08-14T06:15:31.547Z,15.77
2018-08-14T06:20:34.795Z,16.53
2018-08-14T06:25:38.135Z,16.03
2018-08-14T06:30:41.388Z,17.60
2018-08-14T06:35:45.483Z,18.00
2018-08-14T06:40:48.718Z,16.87
2018-08-14T06:45:51.971Z,16.83
2018-08-14T06:50:55.240Z,16.90
2018-08-14T06:55:58.511Z,15.13
2018-08-14T07:01:01.747Z,14.40
2018-08-14T07:06:04.990Z,14.37
2018-08-14T07:11:08.230Z,14.50
2018-08-14T07:16:11.528Z,14.60
2018-08-14T07:21:14.771Z,14.63
2018-08-14T07:26:18.023Z,14.27
2018-08-14T07:31:21.265Z,14.87
2018-08-14T07:36:24.636Z,15.63
2018-08-14T07:41:29.144Z,14.30
2018-08-14T07:46:32.319Z,14.40
2018-08-14T07:51:35.587Z,14.23
2018-08-14T07:56:38.862Z,13.97
2018-08-14T08:01:42.116Z,13.43
2018-08-14T08:06:45.406Z,13.73
2018-08-14T08:11:48.651Z,12.70
2018-08-14T08:16:51.914Z,12.73
2018-08-14T08:21:55.159Z,15.13
2018-08-14T08:26:58.459Z,13.23
2018-08-14T08:32:01.668Z,13.07
2018-08-14T08:37:04.919Z,14.50
2018-08-14T08:42:08.232Z,13.57
2018-08-14T08:47:11.440Z,10.90
2018-08-14T08:52:14.709Z,11.30
2018-08-14T08:57:19.844Z,11.60
2018-08-14T09:02:23.096Z,10.80
2018-08-14T09:07:26.347Z,10.53
2018-08-14T09:12:29.603Z,9.97
2018-08-14T09:17:32.846Z,9.20
2018-08-14T09:22:37.239Z,9.93
2018-08-14T09:27:41.196Z,8.40
2018-08-14T09:32:44.477Z,8.70
2018-08-14T09:37:47.740Z,8.07
2018-08-14T09:42:53.056Z,8.10
2018-08-14T09:47:56.290Z,7.67
2018-08-14T09:52:59.524Z,7.30
2018-08-14T09:58:02.771Z,7.53
2018-08-14T10:03:14.658Z,7.30
2018-08-14T10:08:19.428Z,6.63
2018-08-14T10:13:22.730Z,7.00
2018-08-14T10:18:26.892Z,6.90
2018-08-14T10:23:31.179Z,6.23
2018-08-14T10:28:34.623Z,6.30
2018-08-14T10:33:37.742Z,4.63
2018-08-14T10:38:40.962Z,4.07
2018-08-14T10:43:44.843Z,4.70
2018-08-14T10:48:48.046Z,3.43
2018-08-14T10:53:51.365Z,3.10
2018-08-14T10:58:54.634Z,3.43
2018-08-14T11:03:57.874Z,3.10
2018-08-14T11:09:01.119Z,3.10
2018-08-14T11:14:04.363Z,2.77
2018-08-14T11:19:07.633Z,2.83
2018-08-14T11:24:11.602Z,2.27
2018-08-14T11:29:14.876Z,2.83
2018-08-14T11:34:18.170Z,2.00
2018-08-14T11:39:21.411Z,2.17
2018-08-14T11:44:25.916Z,2.60
2018-08-14T11:49:29.299Z,2.17
2018-08-14T11:54:32.615Z,2.17
2018-08-14T11:59:35.858Z,2.40
2018-08-14T12:04:39.078Z,2.30
2018-08-14T12:09:42.311Z,1.50
2018-08-14T12:14:45.547Z,1.90
2018-08-14T12:19:48.778Z,1.60
2018-08-14T12:24:52.111Z,1.90
2018-08-14T12:29:55.327Z,1.40
2018-08-14T12:34:58.697Z,1.90
2018-08-14T12:40:01.845Z,1.23
2018-08-14T12:45:09.735Z,2.13
2018-08-14T12:50:14.872Z,2.23
2018-08-14T12:55:18.480Z,1.77
2018-08-14T13:00:24.155Z,1.73
2018-08-14T13:05:27.976Z,1.53
2018-08-14T13:10:31.207Z,1.80
2018-08-14T13:15:34.588Z,1.50
2018-08-14T13:20:37.892Z,2.00
2018-08-14T13:25:41.151Z,1.63
2018-08-14T13:30:44.371Z,1.90
2018-08-14T13:35:47.706Z,1.93
2018-08-14T13:40:50.932Z,1.97
2018-08-14T13:45:54.166Z,1.33
2018-08-14T13:50:57.384Z,1.30
2018-08-14T13:56:00.750Z,1.70
2018-08-14T14:01:04.012Z,1.13
2018-08-14T14:06:07.255Z,1.70
2018-08-14T14:11:10.572Z,1.27
2018-08-14T14:16:13.911Z,1.33
2018-08-14T14:21:17.157Z,1.67
2018-08-14T14:26:20.403Z,1.40
2018-08-14T14:31:23.627Z,1.80
2018-08-14T14:36:28.079Z,2.43
2018-08-14T14:41:32.307Z,1.60
2018-08-14T14:46:37.877Z,1.60
2018-08-14T14:51:41.138Z,2.30
2018-08-14T14:56:45.250Z,1.67
2018-08-14T15:01:49.419Z,1.13
2018-08-14T15:06:52.647Z,1.63
2018-08-14T15:11:55.882Z,60.40
2018-08-14T15:16:59.115Z,27.70
2018-08-14T15:22:02.395Z,16.47
2018-08-14T15:27:05.615Z,6.60
2018-08-14T15:32:08.850Z,3.50
2018-08-14T15:37:12.187Z,1.93
2018-08-14T15:42:15.407Z,1.83
2018-08-14T15:47:18.634Z,1.93
2018-08-14T15:52:21.868Z,3.30
2018-08-14T15:57:25.119Z,5.80
2018-08-14T16:02:28.379Z,1.73
2018-08-14T16:07:31.610Z,2.70
2018-08-14T16:24:51.056Z,3.20
2018-08-14T16:29:54.621Z,1.70
2018-08-14T16:34:57.855Z,1.50
2018-08-14T16:40:01.061Z,1.70
2018-08-14T16:45:04.508Z,1.80
2018-08-14T16:50:07.707Z,2.40
2018-08-14T16:55:10.920Z,0.97
2018-08-14T17:00:18.859Z,1.30
2018-08-14T17:05:22.192Z,1.30
2018-08-14T17:10:26.401Z,1.20
2018-08-14T17:15:29.635Z,1.20
2018-08-14T17:20:31.897Z,1.93
2018-08-14T17:25:35.140Z,1.90
2018-08-14T17:30:38.376Z,1.47
2018-08-14T17:35:41.632Z,1.33
2018-08-14T17:40:44.899Z,1.80
2018-08-14T17:45:48.144Z,1.40
2018-08-14T17:50:51.545Z,1.53
2018-08-14T17:55:54.788Z,1.30
2018-08-14T18:00:58.128Z,2.00
2018-08-14T18:06:01.441Z,1.50
2018-08-14T18:11:04.751Z,1.10
2018-08-14T18:16:08.120Z,1.70
2018-08-14T18:21:11.574Z,0.93
2018-08-14T18:26:15.135Z,1.57
2018-08-14T18:31:18.364Z,1.20
2018-08-14T18:36:21.596Z,1.50
2018-08-14T18:41:24.888Z,0.90
2018-08-14T18:46:28.209Z,1.30
2018-08-14T18:51:31.532Z,1.50
2018-08-14T18:56:34.848Z,1.70
2018-08-14T19:01:38.153Z,1.20
2018-08-14T19:06:41.534Z,1.33
2018-08-14T19:11:44.804Z,1.10
2018-08-14T19:16:48.112Z,0.80
2018-08-14T19:21:51.468Z,0.87
2018-08-14T19:26:54.703Z,1.33
2018-08-14T19:31:58.037Z,1.20
2018-08-14T19:37:01.336Z,1.10
2018-08-14T19:42:04.684Z,1.03
2018-08-14T19:47:08.063Z,1.00
2018-08-14T19:52:11.436Z,0.90
2018-08-14T19:57:14.820Z,1.57
2018-08-14T20:02:18.093Z,1.20
2018-08-14T20:07:21.697Z,1.43
2018-08-14T20:12:24.908Z,1.60
2018-08-14T20:17:28.173Z,1.50
2018-08-14T20:22:31.448Z,1.20
2018-08-14T20:27:34.756Z,1.37
2018-08-14T20:32:38.541Z,1.10
2018-08-14T20:37:42.180Z,1.10
2018-08-14T20:42:45.464Z,1.10
2018-08-14T20:47:48.684Z,0.97
2018-08-14T20:52:51.904Z,1.23
2018-08-14T20:57:55.248Z,1.27
2018-08-14T21:02:58.455Z,0.80
2018-08-14T21:08:01.778Z,1.13
2018-08-14T21:13:04.981Z,0.80
2018-08-14T21:18:08.192Z,1.00
2018-08-14T21:23:11.395Z,1.20
2018-08-14T21:28:14.604Z,1.23
2018-08-14T21:33:17.913Z,0.70
2018-08-14T21:38:21.256Z,1.20
2018-08-14T21:43:24.471Z,1.00
2018-08-14T21:48:27.687Z,0.70
2018-08-14T21:53:30.956Z,0.90
2018-08-14T21:58:34.244Z,1.10
2018-08-14T22:03:42.767Z,1.50
2018-08-14T22:08:46.053Z,1.07
2018-08-14T22:13:49.902Z,1.27
2018-08-14T22:18:53.128Z,1.27
2018-08-14T22:23:56.383Z,1.03
2018-08-14T22:28:59.627Z,1.50
2018-08-14T22:34:02.852Z,1.00
2018-08-14T22:39:07.508Z,1.10
2018-08-14T22:44:11.046Z,1.00
2018-08-14T22:49:14.280Z,1.33
2018-08-14T22:54:17.558Z,0.90
2018-08-14T22:59:20.791Z,1.00
2018-08-14T23:04:23.996Z,1.20
2018-08-14T23:09:27.284Z,1.10
2018-08-14T23:14:30.556Z,1.20
2018-08-14T23:19:33.809Z,1.77
2018-08-14T23:24:37.024Z,1.43
2018-08-14T23:29:40.254Z,1.20
2018-08-14T23:34:43.449Z,1.20
2018-08-14T23:39:46.653Z,1.40
2018-08-14T23:44:49.863Z,1.77
2018-08-14T23:49:53.172Z,1.40
2018-08-14T23:54:56.436Z,1.40
2018-08-14T23:59:59.687Z,1.30
